KHUA/HUA METAR and TAF weather

Enter ICAO airport designator
Station Type Date Time Source
KHUA METAR 2022/06/30 00:58 UTC NOAA

KHUA 300058Z AUTO 18004KT 9SM VCTS CLR 29/22 A3014 RMK AO2 SLP200 T02860221


Station Type Date Time Source
KHUA Decoded METAR 2022/06/30 00:58 UTC NOAA

Station name not available
Jun 29, 2022 - 08:58 PM EDT / 2022.06.30 0058 UTC
Wind: from the S (180 degrees) at 5 MPH (4 KT):0
Visibility: 9 mile(s):0
Sky conditions: clear
Weather: thunder in the vicinity
Temperature: 83.5 F (28.6 C)
Dew Point: 71.8 F (22.1 C)
Relative Humidity: 67%
Pressure (altimeter): 30.14 in. Hg (1020 hPa)
ob: KHUA 300058Z AUTO 18004KT 9SM VCTS CLR 29/22 A3014 RMK AO2 SLP200 T02860221
cycle: 1

Station Type Date Time Source
KHUA TAF 2022/06/29 12:05 UTC NOAA

TAF KHUA 291200Z 2912/3018 VRB06KT 9999 SCT014 BKN090 QNH3015INS
BECMG 2914/2915 VRB06KT 8000 BR FEW006 QNH3020INS
BECMG 2915/2916 VRB06KT 8000 BR FEW021 QNH3019INS
BECMG 2918/2919 VRB06KT 9000 -SHRA FEW035 QNH3014INS
TEMPO 2918/2923 VRB15G25KT 9000 -TSRA FEW035CB SCT050 BKN080
BECMG 2923/2924 VRB06KT 9999 NSW FEW045 QNH3014INS
BECMG 3004/3005 VRB06KT 8000 BR FEW013 QNH3016INS
BECMG 3009/3010 VRB06KT 4800 BR BKN006 QNH3016INS
BECMG 3014/3015 VRB06KT 8000 BR BKN021 QNH3020INS
BECMG 3015/3016 VRB06KT 8000 -SHRA BKN021 QNH3017INS
BECMG 3016/3017 VRB06KT 9000 -SHRA SCT029 QNH3014INS
TEMPO 3016/3018 VRB25G35KT 9000 -TSRA SCT029CB BKN045 BKN060 TX29/2920Z TN21/2912Z

Example: see airport list